Time;durP1;ratioP1;P1;durP2;ratioP2;P2;SDS_P1;SDS_P2;PMS_P1;PMS_P2;Temp;Humidity;BMP_temperature;BMP_pressure;BME280_temperature;BME280_humidity;BME280_pressure;Samples;Min_cycle;Max_cycle;Signal;HPM_P1;HPM_P2
2022/07/12 00:02:15;;;;;;;0.13;0.13;;;25.10;42.60;;;;;;5047366;28;20147;-60
2022/07/12 00:04:42;;;;;;;0.22;0.20;;;25.10;42.60;;;;;;5046181;28;20045;-60
2022/07/12 00:07:09;;;;;;;0.40;0.17;;;25.10;42.60;;;;;;5045043;28;20044;-60
2022/07/12 00:09:36;;;;;;;0.40;0.40;;;25.10;42.60;;;;;;5047158;28;20502;-60
2022/07/12 00:12:04;;;;;;;1.35;0.55;;;25.10;42.70;;;;;;5047132;28;20049;-62
2022/07/12 00:14:31;;;;;;;0.70;0.20;;;25.10;42.70;;;;;;5047401;28;20049;-63
2022/07/12 00:16:59;;;;;;;0.68;0.40;;;25.10;42.70;;;;;;5047189;28;20044;-62
2022/07/12 00:19:26;;;;;;;0.90;0.10;;;25.10;42.80;;;;;;5047437;28;20193;-63
2022/07/12 00:21:54;;;;;;;0.17;0.15;;;25.10;42.80;;;;;;5046696;28;20528;-62
2022/07/12 00:24:21;;;;;;;0.20;0.20;;;25.10;42.80;;;;;;5045722;28;20130;-61
2022/07/12 00:26:48;;;;;;;0.32;0.32;;;25.10;42.80;;;;;;5046577;28;20482;-61
2022/07/12 00:29:15;;;;;;;0.73;0.40;;;25.10;42.80;;;;;;5045885;28;20057;-61
2022/07/12 00:31:42;;;;;;;0.20;0.20;;;25.00;42.80;;;;;;5045858;28;20072;-61
2022/07/12 00:34:10;;;;;;;0.43;0.43;;;25.00;42.80;;;;;;5047194;28;20048;-61
2022/07/12 00:36:37;;;;;;;0.20;0.20;;;25.00;42.80;;;;;;5046608;28;20126;-61
2022/07/12 00:39:04;;;;;;;0.20;0.20;;;25.00;42.80;;;;;;5045719;28;20456;-61
2022/07/12 00:41:31;;;;;;;0.43;0.20;;;25.00;42.90;;;;;;5046429;28;20045;-61
2022/07/12 00:43:59;;;;;;;0.10;0.10;;;25.00;42.90;;;;;;5046632;28;20052;-61
2022/07/12 00:46:26;;;;;;;0.20;0.20;;;25.00;42.90;;;;;;5046806;28;20118;-62
2022/07/12 00:48:54;;;;;;;1.85;0.30;;;25.00;42.90;;;;;;5046639;28;20041;-61
2022/07/12 00:51:21;;;;;;;0.10;0.10;;;25.00;42.90;;;;;;5046615;28;20429;-61
2022/07/12 00:53:51;;;;;;;0.40;0.10;;;25.00;42.90;;;;;;5046156;28;20107;-61
2022/07/12 00:56:18;;;;;;;0.93;0.22;;;25.00;42.90;;;;;;5046203;28;20049;-61
2022/07/12 00:58:45;;;;;;;0.28;0.25;;;25.00;42.90;;;;;;5046666;28;20187;-61
2022/07/12 01:01:13;;;;;;;0.32;0.22;;;25.00;42.90;;;;;;5044752;28;20044;-61
2022/07/12 01:03:41;;;;;;;1.20;0.22;;;25.00;42.90;;;;;;5046524;28;20049;-61
2022/07/12 01:06:09;;;;;;;0.17;0.15;;;25.00;42.90;;;;;;5046234;28;20047;-61
2022/07/12 01:08:37;;;;;;;2.72;0.22;;;25.00;42.90;;;;;;5046089;28;20049;-61
2022/07/12 01:11:04;;;;;;;0.60;0.22;;;25.00;42.90;;;;;;5045619;28;20041;-61
2022/07/12 01:13:32;;;;;;;0.47;0.28;;;25.00;42.90;;;;;;5045980;28;20387;-61
2022/07/12 01:16:00;;;;;;;0.20;0.20;;;25.00;42.90;;;;;;5045965;28;20052;-61
2022/07/12 01:18:28;;;;;;;0.32;0.32;;;25.00;42.90;;;;;;5046153;28;20099;-61
2022/07/12 01:20:55;;;;;;;0.35;0.30;;;25.00;42.90;;;;;;5045597;28;20352;-62
2022/07/12 01:23:24;;;;;;;0.32;0.22;;;25.00;42.90;;;;;;5046239;28;20501;-61
2022/07/12 01:25:51;;;;;;;0.20;0.20;;;25.00;42.90;;;;;;5045792;28;20087;-61
2022/07/12 01:28:19;;;;;;;0.32;0.20;;;25.00;42.90;;;;;;5045699;28;20044;-62
2022/07/12 01:30:47;;;;;;;0.20;0.20;;;25.00;42.90;;;;;;5045622;28;20110;-61
2022/07/12 01:33:15;;;;;;;1.27;0.25;;;25.00;42.90;;;;;;5045695;28;20053;-61
2022/07/12 01:35:43;;;;;;;0.70;0.22;;;25.00;42.90;;;;;;5045684;28;20090;-61
2022/07/12 01:38:10;;;;;;;0.28;0.20;;;25.00;42.90;;;;;;5044431;28;20060;-61
2022/07/12 01:40:37;;;;;;;0.20;0.10;;;25.00;42.90;;;;;;5045773;28;20064;-61
2022/07/12 01:43:05;;;;;;;0.35;0.20;;;25.00;42.90;;;;;;5045605;28;20056;-61
2022/07/12 01:45:32;;;;;;;0.50;0.40;;;25.00;43.40;;;;;;5043660;28;20578;-61
2022/07/12 01:48:00;;;;;;;0.20;0.20;;;25.00;42.90;;;;;;5044604;28;20049;-63
2022/07/12 01:50:27;;;;;;;0.20;0.17;;;25.00;42.90;;;;;;5045521;28;20045;-61
2022/07/12 01:52:54;;;;;;;1.30;0.30;;;25.00;42.90;;;;;;5045362;28;20485;-61
2022/07/12 01:55:23;;;;;;;0.75;0.28;;;25.00;42.90;;;;;;5045377;28;20087;-61
2022/07/12 01:57:50;;;;;;;0.55;0.30;;;25.00;42.90;;;;;;5045041;28;20094;-61
2022/07/12 02:00:19;;;;;;;0.63;0.30;;;25.00;42.90;;;;;;5045107;28;20541;-60
2022/07/12 02:02:47;;;;;;;0.50;0.50;;;25.00;42.90;;;;;;5043592;28;20045;-61
2022/07/12 02:05:14;;;;;;;0.28;0.28;;;24.90;42.90;;;;;;5044419;28;20405;-61
2022/07/12 02:07:42;;;;;;;0.30;0.30;;;25.00;42.90;;;;;;5043950;28;20053;-60
2022/07/12 02:10:09;;;;;;;1.00;0.63;;;25.00;42.90;;;;;;5045664;28;20435;-61
2022/07/12 02:12:37;;;;;;;0.13;0.13;;;25.00;42.90;;;;;;5045054;28;20072;-61
2022/07/12 02:15:07;;;;;;;0.10;0.10;;;25.00;43.00;;;;;;5045580;28;20429;-62
2022/07/12 02:17:34;;;;;;;0.57;0.20;;;25.00;43.00;;;;;;5044823;28;20045;-61
2022/07/12 02:20:03;;;;;;;0.38;0.38;;;25.00;43.00;;;;;;5044719;28;20130;-60
2022/07/12 02:22:30;;;;;;;0.15;0.15;;;24.90;42.90;;;;;;5044601;28;20048;-60
2022/07/12 02:24:57;;;;;;;0.15;0.15;;;25.00;43.00;;;;;;5045407;28;20056;-60
2022/07/12 02:27:24;;;;;;;0.20;0.20;;;25.00;43.00;;;;;;5043061;28;20048;-60
2022/07/12 02:29:52;;;;;;;0.80;0.20;;;25.00;43.00;;;;;;5045162;28;20284;-60
2022/07/12 02:32:19;;;;;;;0.40;0.20;;;24.90;43.00;;;;;;5048159;28;20391;-61
2022/07/12 02:34:46;;;;;;;0.10;0.10;;;24.90;43.00;;;;;;5048983;28;20106;-61
2022/07/12 02:37:14;;;;;;;0.10;0.10;;;24.90;43.00;;;;;;5049347;28;20440;-61
2022/07/12 02:39:41;;;;;;;0.17;0.10;;;24.90;43.00;;;;;;5048343;28;20122;-60
2022/07/12 02:42:08;;;;;;;0.10;0.10;;;24.90;43.10;;;;;;5049077;28;20483;-61
2022/07/12 02:44:36;;;;;;;0.17;0.10;;;24.90;43.00;;;;;;5049046;28;20142;-60
2022/07/12 02:47:03;;;;;;;0.10;0.10;;;24.90;43.00;;;;;;5031194;28;20048;-60
2022/07/12 02:49:30;;;;;;;1.27;0.13;;;24.90;43.00;;;;;;5048740;28;20049;-60
2022/07/12 02:51:57;;;;;;;0.10;0.10;;;24.90;43.00;;;;;;5048181;28;20484;-60
2022/07/12 02:54:24;;;;;;;0.20;0.20;;;24.90;43.00;;;;;;5049128;28;20476;-61
2022/07/12 02:56:52;;;;;;;0.13;0.10;;;24.90;43.00;;;;;;5048853;28;20447;-61
2022/07/12 02:59:19;;;;;;;0.20;0.20;;;24.90;43.00;;;;;;5048358;28;20059;-60
2022/07/12 03:01:46;;;;;;;0.15;0.10;;;24.90;43.00;;;;;;5048616;28;20098;-61
2022/07/12 03:04:13;;;;;;;0.30;0.30;;;24.90;43.00;;;;;;5048471;28;20478;-60
2022/07/12 03:06:40;;;;;;;0.10;0.10;;;24.90;42.90;;;;;;5048640;28;20299;-61
2022/07/12 03:09:07;;;;;;;0.17;0.15;;;24.90;42.90;;;;;;5048133;28;20658;-61
2022/07/12 03:11:35;;;;;;;0.40;0.30;;;24.90;42.90;;;;;;5047262;28;20053;-61
2022/07/12 03:14:02;;;;;;;0.10;0.08;;;25.00;43.00;;;;;;5047943;28;20045;-60
2022/07/12 03:16:29;;;;;;;0.10;0.10;;;25.00;42.90;;;;;;5048167;28;20091;-60
2022/07/12 03:18:56;;;;;;;0.13;0.10;;;25.00;42.90;;;;;;5048187;28;20049;-60
2022/07/12 03:21:24;;;;;;;0.43;0.20;;;25.00;42.90;;;;;;5047982;28;20045;-60
2022/07/12 03:23:51;;;;;;;0.20;0.20;;;25.00;42.90;;;;;;5048143;28;20370;-60
2022/07/12 03:26:18;;;;;;;0.25;0.10;;;25.00;42.90;;;;;;5047618;28;20280;-61
2022/07/12 03:28:45;;;;;;;0.40;0.10;;;25.00;42.90;;;;;;5047973;28;20087;-60
2022/07/12 03:31:12;;;;;;;0.30;0.22;;;25.00;42.90;;;;;;5048073;28;20076;-60
2022/07/12 03:33:39;;;;;;;0.10;0.10;;;25.00;42.90;;;;;;5044274;28;20057;-61
2022/07/12 03:36:08;;;;;;;2.38;0.20;;;25.00;42.90;;;;;;5042155;28;20045;-60
2022/07/12 03:38:36;;;;;;;0.15;0.15;;;25.00;42.90;;;;;;5045936;28;20045;-60
2022/07/12 03:41:04;;;;;;;0.77;0.30;;;25.00;42.90;;;;;;5046807;28;20083;-60
2022/07/12 03:43:31;;;;;;;0.30;0.10;;;25.00;42.90;;;;;;5047253;28;20487;-61
2022/07/12 03:45:58;;;;;;;0.35;0.15;;;25.00;42.80;;;;;;5047831;28;20052;-61
2022/07/12 03:48:25;;;;;;;0.30;0.10;;;25.00;42.80;;;;;;5047651;28;20084;-61
2022/07/12 03:50:53;;;;;;;1.92;0.10;;;25.00;42.80;;;;;;5047837;28;20450;-61
2022/07/12 03:53:20;;;;;;;0.20;0.20;;;25.10;42.80;;;;;;5047504;28;20108;-61
2022/07/12 03:55:47;;;;;;;0.30;0.25;;;25.10;42.80;;;;;;5047386;28;20559;-60
2022/07/12 03:58:15;;;;;;;0.20;0.20;;;25.10;42.70;;;;;;5046040;28;20107;-61
2022/07/12 04:00:42;;;;;;;0.60;0.28;;;25.10;42.70;;;;;;5047455;28;20549;-60
2022/07/12 04:03:10;;;;;;;0.10;0.10;;;25.10;43.20;;;;;;5047318;28;20505;-60
2022/07/12 04:05:38;;;;;;;0.20;0.20;;;25.10;42.60;;;;;;5047423;28;20045;-60
2022/07/12 04:08:06;;;;;;;0.68;0.30;;;25.10;42.60;;;;;;5047339;28;20052;-60
2022/07/12 04:10:33;;;;;;;0.20;0.10;;;25.10;42.60;;;;;;5047009;28;20433;-60
2022/07/12 04:13:00;;;;;;;0.70;0.28;;;25.10;42.50;;;;;;5047196;28;20122;-60
2022/07/12 04:15:27;;;;;;;0.95;0.30;;;25.20;42.50;;;;;;5045740;28;20045;-60
2022/07/12 04:17:54;;;;;;;0.32;0.32;;;25.20;42.50;;;;;;5047390;28;20445;-60
2022/07/12 04:20:22;;;;;;;0.30;0.15;;;25.10;42.40;;;;;;5046987;28;20512;-60
2022/07/12 04:22:49;;;;;;;0.20;0.20;;;25.20;42.40;;;;;;5046817;28;20632;-60
2022/07/12 04:25:17;;;;;;;0.43;0.25;;;25.20;42.40;;;;;;5047415;28;20345;-60
2022/07/12 04:27:44;;;;;;;0.35;0.30;;;25.20;42.30;;;;;;5046882;28;20072;-61
2022/07/12 04:30:11;;;;;;;0.98;0.30;;;25.30;42.30;;;;;;5045557;28;20134;-60
2022/07/12 04:32:38;;;;;;;0.82;0.50;;;25.30;42.30;;;;;;5043871;28;20049;-60
2022/07/12 04:35:06;;;;;;;2.47;0.40;;;25.30;42.20;;;;;;5046275;28;20414;-60
2022/07/12 04:37:33;;;;;;;0.90;0.60;;;25.30;42.20;;;;;;5045902;28;20111;-60
2022/07/12 04:40:00;;;;;;;0.32;0.30;;;25.30;42.20;;;;;;5046098;28;20076;-60
2022/07/12 04:42:27;;;;;;;0.43;0.35;;;25.30;42.10;;;;;;5046900;28;20080;-62
2022/07/12 04:44:54;;;;;;;0.90;0.35;;;25.30;42.10;;;;;;5046669;28;20476;-60
2022/07/12 04:47:22;;;;;;;0.40;0.40;;;25.40;42.10;;;;;;5045973;28;20111;-60
2022/07/12 04:49:49;;;;;;;1.27;0.47;;;25.40;42.10;;;;;;5045477;28;20049;-60
2022/07/12 04:52:16;;;;;;;1.77;0.50;;;25.40;42.00;;;;;;5046600;28;20041;-60
2022/07/12 04:54:43;;;;;;;0.32;0.32;;;25.40;42.00;;;;;;5045910;28;20052;-60
2022/07/12 04:57:10;;;;;;;0.40;0.40;;;25.40;41.90;;;;;;5046765;28;20083;-60
2022/07/12 04:59:37;;;;;;;2.28;0.80;;;25.50;41.90;;;;;;5045280;28;20053;-60
2022/07/12 05:02:05;;;;;;;1.60;0.50;;;25.50;41.90;;;;;;5045007;28;20045;-60
2022/07/12 05:04:33;;;;;;;2.00;0.93;;;25.50;41.80;;;;;;5045883;28;20060;-61
2022/07/12 05:07:01;;;;;;;0.55;0.47;;;25.50;41.80;;;;;;5046144;28;20235;-60
2022/07/12 05:09:28;;;;;;;1.77;0.57;;;25.50;41.90;;;;;;5045337;28;20048;-61
2022/07/12 05:11:55;;;;;;;0.63;0.50;;;25.50;42.10;;;;;;5038129;28;20094;-60
2022/07/12 05:14:22;;;;;;;0.82;0.40;;;25.40;42.20;;;;;;5037733;28;20090;-60
2022/07/12 05:16:49;;;;;;;0.43;0.43;;;25.20;42.40;;;;;;5036530;28;20074;-60
2022/07/12 05:19:17;;;;;;;0.80;0.70;;;25.10;42.80;;;;;;5038210;28;20283;-60
2022/07/12 05:21:44;;;;;;;3.28;1.38;;;24.80;43.20;;;;;;5042443;28;20057;-69
2022/07/12 05:24:11;;;;;;;1.20;0.88;;;24.50;44.20;;;;;;5038156;28;20037;-71
2022/07/12 05:26:38;;;;;;;3.05;0.90;;;23.90;45.30;;;;;;5038668;28;20134;-71
2022/07/12 05:29:06;;;;;;;0.80;0.80;;;23.40;46.30;;;;;;5047574;28;20049;-69
2022/07/12 05:31:33;;;;;;;2.75;1.08;;;22.90;46.90;;;;;;5043485;28;20655;-70
2022/07/12 05:34:00;;;;;;;1.20;1.02;;;22.50;47.00;;;;;;5036639;28;20045;-70
2022/07/12 05:36:28;;;;;;;1.58;1.20;;;22.10;47.80;;;;;;5026610;28;20052;-68
2022/07/12 05:38:56;;;;;;;1.00;0.90;;;21.60;48.10;;;;;;5044044;28;20202;-70
2022/07/12 05:41:23;;;;;;;2.20;1.13;;;21.20;48.30;;;;;;5041617;28;20741;-68
2022/07/12 05:43:50;;;;;;;1.90;0.95;;;20.80;49.60;;;;;;5043170;28;20115;-69
2022/07/12 05:46:17;;;;;;;3.53;1.23;;;20.50;50.50;;;;;;5036313;28;20119;-69
2022/07/12 05:48:46;;;;;;;3.50;1.08;;;20.30;51.40;;;;;;5041258;28;20567;-70
2022/07/12 05:54:00;;;;;;;2.60;1.50;;;19.90;52.30;;;;;;5037718;28;20041;-70
2022/07/12 05:56:28;;;;;;;3.15;1.30;;;19.70;52.90;;;;;;5043968;28;20041;-77
2022/07/12 05:58:56;;;;;;;2.63;1.63;;;19.60;53.30;;;;;;5040116;28;20045;-69
2022/07/12 06:01:23;;;;;;;2.90;1.73;;;19.50;53.20;;;;;;5042891;28;20123;-74
2022/07/12 06:03:50;;;;;;;1.42;1.30;;;19.40;53.80;;;;;;5045427;28;20368;-69
2022/07/12 06:06:17;;;;;;;2.00;1.80;;;19.30;54.10;;;;;;5029555;28;20110;-69
2022/07/12 06:08:45;;;;;;;1.45;1.35;;;19.30;54.10;;;;;;5040270;28;20056;-72
2022/07/12 06:11:12;;;;;;;1.35;1.23;;;19.20;55.20;;;;;;5023490;28;20564;-71
2022/07/12 06:13:39;;;;;;;1.42;1.25;;;19.10;55.70;;;;;;5041170;28;20044;-69
2022/07/12 06:16:07;;;;;;;2.75;1.80;;;19.10;55.00;;;;;;5038851;28;20717;-75
2022/07/12 06:18:34;;;;;;;2.20;1.70;;;19.10;54.20;;;;;;5047055;28;20049;-72
2022/07/12 06:21:02;;;;;;;1.90;1.63;;;19.10;54.00;;;;;;5041304;28;20061;-72
2022/07/12 06:23:30;;;;;;;1.98;1.42;;;19.10;55.40;;;;;;5039205;28;20067;-60
2022/07/12 06:25:57;;;;;;;2.60;1.30;;;19.10;54.40;;;;;;5047446;28;20389;-61
2022/07/12 06:28:24;;;;;;;3.75;1.52;;;19.10;53.10;;;;;;5045514;28;20057;-61
2022/07/12 06:30:52;;;;;;;2.08;1.27;;;19.10;53.80;;;;;;5043098;28;20058;-60
2022/07/12 06:33:19;;;;;;;1.83;1.48;;;19.10;54.40;;;;;;5039795;28;20045;-60
2022/07/12 06:35:46;;;;;;;1.55;1.45;;;19.10;54.10;;;;;;5038246;28;20080;-60
2022/07/12 06:38:14;;;;;;;5.00;1.48;;;19.00;53.80;;;;;;5034299;28;20083;-61
2022/07/12 06:40:41;;;;;;;3.95;1.50;;;19.00;54.40;;;;;;5038749;28;20417;-62
2022/07/12 06:43:10;;;;;;;1.40;1.30;;;18.90;54.10;;;;;;5035699;28;20551;-61
2022/07/12 06:45:37;;;;;;;1.83;1.73;;;18.90;54.10;;;;;;5033663;28;20053;-61
2022/07/12 06:48:05;;;;;;;1.55;1.50;;;18.90;54.70;;;;;;5038501;28;20590;-60
2022/07/12 06:50:33;;;;;;;2.05;1.60;;;18.80;54.50;;;;;;5043979;28;20605;-59
2022/07/12 06:53:00;;;;;;;1.38;1.27;;;18.80;54.00;;;;;;5038734;28;20046;-59
2022/07/12 06:55:27;;;;;;;2.80;1.45;;;18.80;54.20;;;;;;5038708;28;20068;-61
2022/07/12 06:57:54;;;;;;;3.05;1.63;;;18.80;54.60;;;;;;5031236;28;20139;-63
2022/07/12 07:00:22;;;;;;;1.40;1.15;;;18.80;54.20;;;;;;5030071;28;20123;-62
2022/07/12 07:02:49;;;;;;;0.98;0.98;;;18.70;54.30;;;;;;5033126;28;20072;-61
2022/07/12 07:05:17;;;;;;;4.35;1.55;;;18.70;54.90;;;;;;5034894;28;20519;-62
2022/07/12 07:07:44;;;;;;;1.85;1.40;;;18.80;55.20;;;;;;5036242;28;20049;-62
2022/07/12 07:10:12;;;;;;;2.13;1.80;;;18.80;54.50;;;;;;5044674;28;20045;-60
2022/07/12 07:12:40;;;;;;;6.75;1.40;;;18.80;54.60;;;;;;5065171;28;20068;-61
2022/07/12 07:15:08;;;;;;;4.30;1.65;;;18.80;54.10;;;;;;5047491;28;20127;-61
2022/07/12 07:17:35;;;;;;;4.18;1.92;;;18.80;53.90;;;;;;5045530;28;20049;-63
2022/07/12 07:20:02;;;;;;;2.38;1.63;;;18.80;53.60;;;;;;5048156;28;20053;-61
2022/07/12 07:22:30;;;;;;;4.10;1.48;;;18.80;53.70;;;;;;5042476;28;20051;-62
2022/07/12 07:24:57;;;;;;;3.05;1.40;;;18.80;53.60;;;;;;5040140;28;20056;-62
2022/07/12 07:27:24;;;;;;;1.75;1.52;;;18.80;53.80;;;;;;5040062;28;20116;-61
2022/07/12 07:32:38;;;;;;;1.95;1.60;;;18.90;53.40;;;;;;5039391;28;20065;-62
2022/07/12 07:35:07;;;;;;;1.40;1.25;;;19.00;53.50;;;;;;5043526;28;20447;-62
2022/07/12 07:37:34;;;;;;;6.07;1.48;;;19.00;53.60;;;;;;5046901;28;20063;-62
2022/07/12 07:40:02;;;;;;;1.58;1.20;;;18.90;53.60;;;;;;5044346;28;20045;-61
2022/07/12 07:42:30;;;;;;;1.70;1.60;;;19.00;53.60;;;;;;5039332;28;20127;-63
2022/07/12 07:44:57;;;;;;;3.42;1.23;;;19.00;52.50;;;;;;5045570;28;20048;-62
2022/07/12 07:47:47;;;;;;;4.53;1.13;;;18.90;52.80;;;;;;5040281;28;20135;-62
2022/07/12 07:50:35;;;;;;;4.13;1.05;;;18.90;52.90;;;;;;5042184;28;20154;-61
2022/07/12 07:53:04;;;;;;;1.88;1.30;;;18.90;52.90;;;;;;5045389;28;20115;-61
2022/07/12 07:55:32;;;;;;;3.15;1.30;;;18.90;53.00;;;;;;5043087;28;20049;-62
2022/07/12 07:58:00;;;;;;;1.13;1.10;;;18.90;52.90;;;;;;5046272;28;20063;-61
2022/07/12 08:00:28;;;;;;;1.00;1.00;;;18.90;52.90;;;;;;5048980;28;20160;-60
2022/07/12 08:02:56;;;;;;;3.33;1.20;;;19.00;53.40;;;;;;5044271;28;20413;-62
2022/07/12 08:05:24;;;;;;;2.03;1.00;;;19.00;53.20;;;;;;5049246;28;20052;-61
2022/07/12 08:07:56;;;;;;;0.90;0.90;;;19.00;53.00;;;;;;5043033;28;20138;-60
2022/07/12 08:10:24;;;;;;;2.03;1.08;;;19.00;53.00;;;;;;5040536;28;20056;-61
2022/07/12 08:12:51;;;;;;;1.67;1.00;;;19.00;52.30;;;;;;5044750;28;20048;-59
2022/07/12 08:15:19;;;;;;;1.60;0.80;;;19.20;52.60;;;;;;5034837;28;20426;-58
2022/07/12 08:17:46;;;;;;;1.20;1.00;;;19.20;51.30;;;;;;5070579;28;20058;-66
2022/07/12 08:20:21;;;;;;;6.45;0.95;;;19.30;50.40;;;;;;5056400;28;20054;-61
2022/07/12 08:23:10;;;;;;;1.10;1.00;;;19.40;49.80;;;;;;5045013;28;20040;-61
2022/07/12 08:25:37;;;;;;;1.00;0.90;;;19.40;50.60;;;;;;5038328;28;20053;-61
2022/07/12 08:28:05;;;;;;;3.63;0.90;;;19.40;51.50;;;;;;5037653;28;20040;-62
2022/07/12 08:30:33;;;;;;;1.83;1.30;;;19.40;51.10;;;;;;5069594;28;20079;-59
2022/07/12 08:33:00;;;;;;;2.78;1.00;;;19.40;51.90;;;;;;5041349;28;20667;-58
2022/07/12 08:35:28;;;;;;;3.55;1.20;;;19.30;52.10;;;;;;5042781;28;20591;-59
2022/07/12 08:37:55;;;;;;;1.50;1.40;;;19.30;52.00;;;;;;5039427;28;20044;-58
2022/07/12 08:40:23;;;;;;;4.10;1.40;;;19.30;52.20;;;;;;5039963;28;20498;-59
2022/07/12 08:42:51;;;;;;;1.40;1.00;;;19.30;52.30;;;;;;5038847;28;20520;-59
2022/07/12 08:45:18;;;;;;;1.48;1.38;;;19.20;52.30;;;;;;5056237;28;20413;-59
2022/07/12 08:47:45;;;;;;;1.67;1.42;;;19.20;52.50;;;;;;5042511;28;20049;-59
2022/07/12 08:50:18;;;;;;;1.85;1.75;;;19.20;52.60;;;;;;5044629;28;20041;-57
2022/07/12 08:52:51;;;;;;;7.75;1.55;;;19.20;52.40;;;;;;5038408;28;20076;-58
2022/07/12 08:55:28;;;;;;;2.75;1.77;;;19.20;52.50;;;;;;5040342;28;20052;-59
2022/07/12 08:57:57;;;;;;;4.43;1.38;;;19.20;52.50;;;;;;5044741;28;20053;-60
2022/07/12 09:00:26;;;;;;;5.88;1.85;;;19.20;52.40;;;;;;5068381;28;20052;-60
2022/07/12 09:02:58;;;;;;;2.53;1.50;;;19.10;52.40;;;;;;5038591;28;20124;-60
2022/07/12 09:05:28;;;;;;;2.83;1.50;;;19.10;52.60;;;;;;5051782;28;20056;-60
2022/07/12 09:08:07;;;;;;;2.08;1.40;;;19.10;52.70;;;;;;5039789;28;20056;-59
2022/07/12 09:11:02;;;;;;;4.13;1.33;;;19.00;52.70;;;;;;5041856;28;20089;-60
2022/07/12 09:13:51;;;;;;;2.17;1.45;;;19.10;52.70;;;;;;5041565;28;20129;-59
2022/07/12 09:16:20;;;;;;;2.72;1.10;;;19.00;52.50;;;;;;5049791;28;20461;-59
2022/07/12 09:18:49;;;;;;;1.90;1.52;;;19.10;52.90;;;;;;5044143;28;20045;-59
2022/07/12 09:21:29;;;;;;;3.78;1.50;;;19.10;52.70;;;;;;5038711;28;20060;-58
2022/07/12 09:23:58;;;;;;;1.80;1.38;;;19.10;52.50;;;;;;5041893;28;20052;-60
2022/07/12 09:26:33;;;;;;;1.45;1.00;;;19.20;52.50;;;;;;5046272;28;20110;-61
2022/07/12 09:29:06;;;;;;;2.30;1.00;;;19.20;52.50;;;;;;5041982;28;20533;-58
2022/07/12 09:37:26;;;;;;;3.00;1.40;;;19.20;52.20;;;;;;5045653;28;20482;-60
2022/07/12 09:39:54;;;;;;;1.63;1.27;;;19.20;51.90;;;;;;5042949;28;20045;-60
2022/07/12 09:42:24;;;;;;;3.45;1.00;;;19.30;52.00;;;;;;5044684;28;20052;-60
2022/07/12 09:44:57;;;;;;;1.38;1.17;;;19.20;51.90;;;;;;5039577;28;20048;-60
2022/07/12 09:47:26;;;;;;;1.95;1.45;;;19.20;52.00;;;;;;5039360;28;20069;-62
2022/07/12 09:49:54;;;;;;;1.10;1.00;;;19.20;52.10;;;;;;5041023;28;20060;-61
2022/07/12 09:52:23;;;;;;;0.88;0.85;;;19.30;52.20;;;;;;5042202;28;20114;-59
2022/07/12 09:54:52;;;;;;;2.40;1.10;;;19.20;52.10;;;;;;5044995;28;20508;-61
2022/07/12 09:57:30;;;;;;;1.95;1.17;;;19.20;52.30;;;;;;5036593;28;20485;-62
2022/07/12 09:59:59;;;;;;;1.23;1.10;;;19.20;52.30;;;;;;5041573;28;20053;-62
2022/07/12 10:02:27;;;;;;;4.70;1.60;;;19.10;52.10;;;;;;5043001;28;20045;-62
2022/07/12 10:04:56;;;;;;;1.77;1.30;;;19.10;52.10;;;;;;5043656;28;20045;-61
2022/07/12 10:07:23;;;;;;;1.00;1.00;;;19.10;52.10;;;;;;5042114;28;20045;-62
2022/07/12 10:09:53;;;;;;;1.52;1.08;;;19.10;52.10;;;;;;5042113;28;20083;-62
2022/07/12 10:12:22;;;;;;;1.17;1.08;;;19.20;52.10;;;;;;5040926;28;20061;-62
2022/07/12 10:15:07;;;;;;;1.58;1.42;;;19.20;52.20;;;;;;5042414;28;20037;-61
2022/07/12 10:17:35;;;;;;;1.20;1.08;;;19.20;52.20;;;;;;5039994;28;20500;-61
2022/07/12 10:20:22;;;;;;;4.22;1.02;;;19.20;52.30;;;;;;5058940;28;20497;-61
2022/07/12 10:23:09;;;;;;;1.95;1.00;;;19.30;52.10;;;;;;5042141;28;20453;-61
2022/07/12 10:25:37;;;;;;;3.95;1.35;;;19.30;51.90;;;;;;5039880;28;20049;-61
2022/07/12 10:28:04;;;;;;;1.10;1.10;;;19.30;51.30;;;;;;5042205;28;20052;-61
2022/07/12 10:30:48;;;;;;;2.25;1.08;;;19.30;51.20;;;;;;5043356;28;20051;-61
2022/07/12 10:33:19;;;;;;;2.08;1.33;;;19.30;51.20;;;;;;5042364;28;20140;-61
2022/07/12 10:36:07;;;;;;;3.60;1.48;;;19.30;51.30;;;;;;5042472;28;20106;-61
2022/07/12 10:38:41;;;;;;;1.30;1.23;;;19.20;51.30;;;;;;5042490;28;20044;-60
2022/07/12 10:41:21;;;;;;;1.40;1.30;;;19.20;51.40;;;;;;5042050;28;20045;-61
2022/07/12 10:44:06;;;;;;;;;;;19.30;51.50;;;;;;5045255;28;20090;-62
2022/07/12 10:46:34;;;;;;;1.30;1.08;;;19.20;51.90;;;;;;5052861;28;20312;-62
2022/07/12 10:49:26;;;;;;;1.20;1.10;;;19.20;52.20;;;;;;5050155;28;20053;-62
2022/07/12 10:52:14;;;;;;;3.50;1.10;;;19.30;52.10;;;;;;5042161;28;20073;-61
2022/07/12 10:55:22;;;;;;;1.95;1.20;;;19.30;52.10;;;;;;5039541;28;20524;-61
2022/07/12 10:57:51;;;;;;;1.50;1.25;;;19.30;52.10;;;;;;5038236;28;20248;-61
2022/07/12 11:00:19;;;;;;;2.75;1.38;;;19.20;52.60;;;;;;5045900;28;20049;-61
2022/07/12 11:02:46;;;;;;;3.60;1.08;;;19.30;53.20;;;;;;5046283;28;20053;-60
2022/07/12 11:05:14;;;;;;;1.60;1.10;;;19.30;52.70;;;;;;5041160;28;20049;-61
2022/07/12 11:07:41;;;;;;;2.40;1.50;;;19.40;52.40;;;;;;5044712;28;20099;-61
2022/07/12 11:10:12;;;;;;;1.33;1.23;;;19.40;52.70;;;;;;5047259;28;20051;-61
2022/07/12 11:12:39;;;;;;;2.45;0.98;;;19.30;52.40;;;;;;5040040;28;21555;-61
2022/07/12 11:15:08;;;;;;;1.02;1.02;;;19.30;52.50;;;;;;5050147;28;20049;-61
2022/07/12 11:17:35;;;;;;;1.73;0.98;;;19.30;52.80;;;;;;5044006;28;20136;-60
2022/07/12 11:20:13;;;;;;;0.95;0.90;;;19.30;52.60;;;;;;5047053;28;20048;-62
2022/07/12 11:22:42;;;;;;;1.77;1.10;;;19.30;52.60;;;;;;5046940;28;20057;-62
2022/07/12 11:25:11;;;;;;;1.00;1.00;;;19.20;52.60;;;;;;5051598;28;20094;-62
2022/07/12 11:27:39;;;;;;;0.98;0.90;;;19.20;52.60;;;;;;5038054;28;20558;-63
2022/07/12 11:30:08;;;;;;;1.35;1.00;;;19.20;52.60;;;;;;5045155;28;20049;-61
2022/07/12 11:32:37;;;;;;;1.38;1.23;;;19.20;52.70;;;;;;5044375;28;20052;-61
2022/07/12 11:35:21;;;;;;;8.88;0.98;;;19.20;52.80;;;;;;5048059;28;20045;-61
2022/07/12 11:37:53;;;;;;;1.45;1.35;;;19.20;53.60;;;;;;5044103;28;20096;-63
2022/07/12 11:40:26;;;;;;;2.47;1.30;;;19.20;53.70;;;;;;5045448;28;20102;-60
2022/07/12 11:42:54;;;;;;;2.67;1.13;;;19.30;53.30;;;;;;5043209;28;20040;-61
2022/07/12 11:45:22;;;;;;;1.05;0.95;;;19.30;53.20;;;;;;5040809;28;20106;-60
2022/07/12 11:47:50;;;;;;;3.67;0.93;;;19.40;53.70;;;;;;5045912;28;20045;-60
2022/07/12 11:50:19;;;;;;;2.80;1.10;;;19.40;53.20;;;;;;5056588;28;20107;-61
2022/07/12 11:52:47;;;;;;;1.60;0.80;;;19.40;53.30;;;;;;5035573;28;20111;-61
2022/07/12 11:55:14;;;;;;;1.23;1.13;;;19.50;53.10;;;;;;5042608;28;20049;-60
2022/07/12 11:57:43;;;;;;;1.73;1.10;;;19.40;52.70;;;;;;5041551;28;20057;-61
2022/07/12 12:00:19;;;;;;;4.25;0.90;;;19.40;52.70;;;;;;5040321;28;20107;-61
2022/07/12 12:02:51;;;;;;;6.95;1.75;;;19.40;52.80;;;;;;5042566;28;20052;-62
2022/07/12 12:05:20;;;;;;;1.70;0.98;;;19.40;52.70;;;;;;5046314;28;20504;-61
2022/07/12 12:07:48;;;;;;;1.38;0.98;;;19.40;52.80;;;;;;5045004;28;20129;-62
2022/07/12 12:10:21;;;;;;;2.58;1.05;;;19.40;52.90;;;;;;5039405;28;20126;-61
2022/07/12 12:12:53;;;;;;;1.05;0.80;;;19.40;53.10;;;;;;5054950;28;20345;-61
2022/07/12 12:15:31;;;;;;;1.75;1.00;;;19.40;53.20;;;;;;5039642;28;20072;-62
2022/07/12 12:18:07;;;;;;;1.65;0.60;;;19.40;53.20;;;;;;5043233;28;20102;-62
2022/07/12 12:20:39;;;;;;;1.15;0.80;;;19.40;53.20;;;;;;5031214;28;20118;-62
2022/07/12 12:23:14;;;;;;;4.20;2.15;;;19.40;53.40;;;;;;5040945;28;20045;-62
2022/07/12 12:25:42;;;;;;;0.98;0.93;;;19.40;53.50;;;;;;5041627;28;20057;-64
2022/07/12 12:28:10;;;;;;;0.80;0.70;;;19.50;53.60;;;;;;5035979;28;20048;-62
2022/07/12 12:30:53;;;;;;;0.85;0.63;;;19.50;53.60;;;;;;5041737;28;20099;-62
2022/07/12 12:33:38;;;;;;;1.08;0.57;;;19.60;53.60;;;;;;5038105;28;20224;-62
2022/07/12 12:36:14;;;;;;;0.70;0.70;;;19.60;53.60;;;;;;5043680;28;20045;-62
2022/07/12 12:38:42;;;;;;;2.40;0.80;;;19.60;53.50;;;;;;5055641;28;20053;-62
2022/07/12 12:41:10;;;;;;;1.08;1.05;;;19.60;53.50;;;;;;5038881;28;20045;-60
2022/07/12 12:43:38;;;;;;;3.08;0.77;;;19.70;53.40;;;;;;5038890;28;20061;-61
2022/07/12 12:46:05;;;;;;;2.40;0.70;;;19.80;53.40;;;;;;5043021;28;20451;-59
2022/07/12 12:48:34;;;;;;;3.03;1.00;;;19.80;53.50;;;;;;5033559;28;20103;-60
2022/07/12 12:51:10;;;;;;;0.85;0.68;;;19.80;53.40;;;;;;5033598;28;20190;-59
2022/07/12 12:53:39;;;;;;;0.60;0.50;;;19.80;54.00;;;;;;5037487;28;20051;-60
2022/07/12 12:56:09;;;;;;;0.47;0.47;;;19.80;53.40;;;;;;5038871;28;20509;-60
2022/07/12 12:58:37;;;;;;;1.33;0.80;;;19.90;53.40;;;;;;5038293;28;20049;-60
2022/07/12 13:01:05;;;;;;;1.23;0.80;;;19.90;53.30;;;;;;5040749;28;20572;-61
2022/07/12 13:03:33;;;;;;;0.90;0.70;;;19.90;53.30;;;;;;5043687;28;20131;-60
2022/07/12 13:06:01;;;;;;;0.60;0.60;;;20.00;53.20;;;;;;5036590;28;20063;-60
2022/07/12 13:08:29;;;;;;;0.60;0.60;;;20.00;53.20;;;;;;5040952;28;20041;-59
2022/07/12 13:13:44;;;;;;;0.63;0.60;;;20.00;53.30;;;;;;5038499;28;20049;-61